PWSweather.com
Personal Weather Stations
Station Observations
BRISTOL
HorfieldFilton, BristolGB BS7

HorfieldFiltonBristolGB BS7

Lat: 51.5, Lon: -2.576

Elevation: 272

Station Type: Davis VP2

http://www.martynhicks.co.uk/weather/data.php

Latest ConditionsUpdated 6:30:02 PM GMT Thursday, Mar 5, 2015
Currently Today's Max Today's Min Today's Average
Temperature 46.5°F8.1°C 51.4°F10.8°C 35.7°F2.1°C 42.9°F6.1°C
Dew Point 39.3°F4.1°C 42.3°F5.7°C 32.1°F0.1°C 37.4°F3.0°C
Winds 7.7 mph W12.4 kmh W 13.4 mph W21.6 kmh W - 3.4 mph 5.5 kmh
Wind Gusts 13.0 mph20.9 kmh 22.0 mph35.4 kmh - -
Humidity 76% 93% 61% 81%
Pressure 30.65 in1037.9 mb 30.72 in1040.3 mb 30.64 in1037.6 mb -
Hour Temp Dew Point Humidity Winds Wind Gusts Pressure Precip Precip Rate Daily Precip Total
06:30 PM 46.5°F8.1°C 39.3°F4.1°C 76% 7.7 mph W12.4 kmh W 13.0 mph20.9 kmh 30.65 in1037.9 mb 0.00 in0.0 mm 0.00 in/hr0.0 mm/hr 0.00 in0.0 mm
06:20 PM 46.2°F7.9°C 40.1°F4.5°C 79% 7.2 mph W11.6 kmh W 10.0 mph16.1 kmh 30.64 in1037.6 mb 0.00 in0.0 mm 0.00 in/hr0.0 mm/hr 0.00 in0.0 mm
06:10 PM 46.2°F7.9°C 41.0°F5.0°C 82% 6.5 mph W10.5 kmh W 11.0 mph17.7 kmh 30.65 in1037.9 mb 0.00 in0.0 mm 0.00 in/hr0.0 mm/hr 0.00 in0.0 mm
06:00 PM 46.3°F7.9°C 41.1°F5.1°C 82% 7.7 mph WSW12.4 kmh WSW 10.0 mph16.1 kmh 30.64 in1037.6 mb 0.00 in0.0 mm 0.00 in/hr0.0 mm/hr 0.00 in0.0 mm
05:50 PM 46.3°F7.9°C 40.8°F4.9°C 81% 6.1 mph WSW9.8 kmh WSW 10.0 mph16.1 kmh 30.64 in1037.6 mb 0.00 in0.0 mm 0.00 in/hr0.0 mm/hr 0.00 in0.0 mm
05:40 PM 46.5°F8.1°C 41.0°F5.0°C 81% 3.2 mph WNW5.1 kmh WNW 10.0 mph16.1 kmh 30.64 in1037.6 mb 0.00 in0.0 mm 0.00 in/hr0.0 mm/hr 0.00 in0.0 mm
05:30 PM 46.9°F8.3°C 41.1°F5.1°C 80% 0.7 mph WSW1.1 kmh WSW 3.0 mph4.8 kmh 30.64 in1037.6 mb 0.00 in0.0 mm 0.00 in/hr0.0 mm/hr 0.00 in0.0 mm
05:20 PM 47.2°F8.4°C 40.4°F4.7°C 77% 9.1 mph WSW14.6 kmh WSW 11.0 mph17.7 kmh 30.65 in1037.9 mb 0.00 in0.0 mm 0.00 in/hr0.0 mm/hr 0.00 in0.0 mm
05:10 PM 47.3°F8.5°C 40.5°F4.7°C 77% 5.4 mph WSW8.7 kmh WSW 7.0 mph11.3 kmh 30.65 in1037.9 mb 0.00 in0.0 mm 0.00 in/hr0.0 mm/hr 0.00 in0.0 mm
05:00 PM 47.3°F8.5°C 40.5°F4.7°C 77% 5.5 mph W8.9 kmh W 10.0 mph16.1 kmh 30.65 in1037.9 mb 0.00 in0.0 mm 0.00 in/hr0.0 mm/hr 0.00 in0.0 mm
04:50 PM 47.2°F8.4°C 40.7°F4.8°C 78% 5.8 mph WSW9.3 kmh WSW 11.0 mph17.7 kmh 30.65 in1037.9 mb 0.00 in0.0 mm 0.00 in/hr0.0 mm/hr 0.00 in0.0 mm
04:40 PM 47.2°F8.4°C 40.7°F4.8°C 78% 9.2 mph WSW14.8 kmh WSW 13.0 mph20.9 kmh 30.65 in1037.9 mb 0.00 in0.0 mm 0.00 in/hr0.0 mm/hr 0.00 in0.0 mm
04:30 PM 47.5°F8.6°C 40.6°F4.8°C 77% 4.1 mph WSW6.6 kmh WSW 13.0 mph20.9 kmh 30.65 in1037.9 mb 0.00 in0.0 mm 0.00 in/hr0.0 mm/hr 0.00 in0.0 mm
04:20 PM 47.6°F8.7°C 40.4°F4.7°C 76% 8.4 mph WNW13.5 kmh WNW 11.0 mph17.7 kmh 30.65 in1037.9 mb 0.00 in0.0 mm 0.00 in/hr0.0 mm/hr 0.00 in0.0 mm
04:10 PM 47.6°F8.7°C 40.7°F4.8°C 77% 6.1 mph W9.8 kmh W 11.0 mph17.7 kmh 30.65 in1037.9 mb 0.00 in0.0 mm 0.00 in/hr0.0 mm/hr 0.00 in0.0 mm
04:00 PM 47.7°F8.7°C 40.8°F4.9°C 77% 8.8 mph W14.2 kmh W 15.0 mph24.1 kmh 30.66 in1038.3 mb 0.00 in0.0 mm 0.00 in/hr0.0 mm/hr 0.00 in0.0 mm
03:50 PM 47.7°F8.7°C 41.5°F5.3°C 79% 6.2 mph WSW10.0 kmh WSW 13.0 mph20.9 kmh 30.66 in1038.3 mb 0.00 in0.0 mm 0.00 in/hr0.0 mm/hr 0.00 in0.0 mm
03:40 PM 47.4°F8.6°C 41.2°F5.1°C 79% 6.0 mph W9.7 kmh W 9.0 mph14.5 kmh 30.66 in1038.3 mb 0.00 in0.0 mm 0.00 in/hr0.0 mm/hr 0.00 in0.0 mm
03:30 PM 46.9°F8.3°C 41.1°F5.1°C 80% 2.9 mph SW4.7 kmh SW 6.0 mph9.7 kmh 30.66 in1038.3 mb 0.00 in0.0 mm 0.00 in/hr0.0 mm/hr 0.00 in0.0 mm
03:20 PM 46.7°F8.2°C 41.2°F5.1°C 81% 7.2 mph W11.6 kmh W 12.0 mph19.3 kmh 30.66 in1038.3 mb 0.00 in0.0 mm 0.00 in/hr0.0 mm/hr 0.00 in0.0 mm
03:10 PM 47.0°F8.3°C 41.8°F5.4°C 82% 6.4 mph NW10.3 kmh NW 14.0 mph22.5 kmh 30.67 in1038.6 mb 0.00 in0.0 mm 0.00 in/hr0.0 mm/hr 0.00 in0.0 mm
03:00 PM 47.4°F8.6°C 41.2°F5.1°C 79% 10.8 mph W17.4 kmh W 15.0 mph24.1 kmh 30.68 in1038.9 mb 0.00 in0.0 mm 0.00 in/hr0.0 mm/hr 0.00 in0.0 mm
02:50 PM 47.4°F8.6°C 40.9°F4.9°C 78% 9.4 mph WSW15.1 kmh WSW 15.0 mph24.1 kmh 30.68 in1038.9 mb 0.00 in0.0 mm 0.00 in/hr0.0 mm/hr 0.00 in0.0 mm
02:40 PM 47.5°F8.6°C 41.0°F5.0°C 78% 8.3 mph W13.4 kmh W 16.0 mph25.7 kmh 30.68 in1038.9 mb 0.00 in0.0 mm 0.00 in/hr0.0 mm/hr 0.00 in0.0 mm
02:30 PM 48.1°F8.9°C 41.2°F5.1°C 77% 7.7 mph WNW12.4 kmh WNW 13.0 mph20.9 kmh 30.68 in1038.9 mb 0.00 in0.0 mm 0.00 in/hr0.0 mm/hr 0.00 in0.0 mm
02:20 PM 48.9°F9.4°C 39.9°F4.4°C 71% 10.9 mph W17.5 kmh W 19.0 mph30.6 kmh 30.68 in1038.9 mb 0.00 in0.0 mm 0.00 in/hr0.0 mm/hr 0.00 in0.0 mm
02:10 PM 49.4°F9.7°C 39.3°F4.1°C 68% 9.2 mph WSW14.8 kmh WSW 18.0 mph29.0 kmh 30.67 in1038.6 mb 0.00 in0.0 mm 0.00 in/hr0.0 mm/hr 0.00 in0.0 mm
02:00 PM 49.6°F9.8°C 38.3°F3.5°C 65% 10.9 mph W17.5 kmh W 15.0 mph24.1 kmh 30.67 in1038.6 mb 0.00 in0.0 mm 0.00 in/hr0.0 mm/hr 0.00 in0.0 mm
01:50 PM 50.1°F10.1°C 38.8°F3.8°C 65% 11.3 mph WSW18.2 kmh WSW 21.0 mph33.8 kmh 30.67 in1038.6 mb 0.00 in0.0 mm 0.00 in/hr0.0 mm/hr 0.00 in0.0 mm
01:40 PM 51.4°F10.8°C 38.8°F3.8°C 62% 9.3 mph WSW15.0 kmh WSW 22.0 mph35.4 kmh 30.67 in1038.6 mb 0.00 in0.0 mm 0.00 in/hr0.0 mm/hr 0.00 in0.0 mm
01:30 PM 50.8°F10.4°C 37.9°F3.3°C 61% 13.4 mph W21.6 kmh W 19.0 mph30.6 kmh 30.67 in1038.6 mb 0.00 in0.0 mm 0.00 in/hr0.0 mm/hr 0.00 in0.0 mm
01:20 PM 51.1°F10.6°C 38.1°F3.4°C 61% 9.2 mph W14.8 kmh W 15.0 mph24.1 kmh 30.68 in1038.9 mb 0.00 in0.0 mm 0.00 in/hr0.0 mm/hr 0.00 in0.0 mm
01:10 PM 51.0°F10.6°C 38.0°F3.3°C 61% 8.4 mph WSW13.5 kmh WSW 15.0 mph24.1 kmh 30.68 in1038.9 mb 0.00 in0.0 mm 0.00 in/hr0.0 mm/hr 0.00 in0.0 mm
01:00 PM 51.1°F10.6°C 38.6°F3.7°C 62% 12.4 mph WSW20.0 kmh WSW 17.0 mph27.4 kmh 30.68 in1038.9 mb 0.00 in0.0 mm 0.00 in/hr0.0 mm/hr 0.00 in0.0 mm
12:50 PM 51.3°F10.7°C 40.3°F4.6°C 66% 8.2 mph W13.2 kmh W 17.0 mph27.4 kmh 30.68 in1038.9 mb 0.00 in0.0 mm 0.00 in/hr0.0 mm/hr 0.00 in0.0 mm
12:40 PM 50.4°F10.2°C 39.5°F4.2°C 66% 10.4 mph W16.7 kmh W 18.0 mph29.0 kmh 30.68 in1038.9 mb 0.00 in0.0 mm 0.00 in/hr0.0 mm/hr 0.00 in0.0 mm
12:30 PM 50.5°F10.3°C 41.1°F5.1°C 70% 12.3 mph W19.8 kmh W 16.0 mph25.7 kmh 30.69 in1039.3 mb 0.00 in0.0 mm 0.00 in/hr0.0 mm/hr 0.00 in0.0 mm
12:20 PM 49.6°F9.8°C 41.7°F5.4°C 74% 5.6 mph W9.0 kmh W 7.0 mph11.3 kmh 30.69 in1039.3 mb 0.00 in0.0 mm 0.00 in/hr0.0 mm/hr 0.00 in0.0 mm
12:10 PM 48.9°F9.4°C 41.0°F5.0°C 74% 3.9 mph WSW6.3 kmh WSW 8.0 mph12.9 kmh 30.69 in1039.3 mb 0.00 in0.0 mm 0.00 in/hr0.0 mm/hr 0.00 in0.0 mm
12:00 PM 48.8°F9.3°C 41.2°F5.1°C 75% 7.8 mph W12.6 kmh W 14.0 mph22.5 kmh 30.70 in1039.6 mb 0.00 in0.0 mm 0.00 in/hr0.0 mm/hr 0.00 in0.0 mm
11:50 AM 49.2°F9.6°C 41.6°F5.3°C 75% 6.3 mph WSW10.1 kmh WSW 9.0 mph14.5 kmh 30.69 in1039.3 mb 0.00 in0.0 mm 0.00 in/hr0.0 mm/hr 0.00 in0.0 mm
11:40 AM 49.7°F9.8°C 42.1°F5.6°C 75% 9.5 mph W15.3 kmh W 17.0 mph27.4 kmh 30.69 in1039.3 mb 0.00 in0.0 mm 0.00 in/hr0.0 mm/hr 0.00 in0.0 mm
11:30 AM 49.5°F9.7°C 42.3°F5.7°C 76% 6.0 mph WSW9.7 kmh WSW 14.0 mph22.5 kmh 30.69 in1039.3 mb 0.00 in0.0 mm 0.00 in/hr0.0 mm/hr 0.00 in0.0 mm
11:20 AM 49.3°F9.6°C 41.7°F5.4°C 75% 4.1 mph WSW6.6 kmh WSW 11.0 mph17.7 kmh 30.69 in1039.3 mb 0.00 in0.0 mm 0.00 in/hr0.0 mm/hr 0.00 in0.0 mm
11:10 AM 49.0°F9.4°C 41.8°F5.4°C 76% 6.7 mph WSW10.8 kmh WSW 12.0 mph19.3 kmh 30.69 in1039.3 mb 0.00 in0.0 mm 0.00 in/hr0.0 mm/hr 0.00 in0.0 mm
11:00 AM 48.6°F9.2°C 42.0°F5.6°C 78% 3.3 mph SW5.3 kmh SW 5.0 mph8.0 kmh 30.70 in1039.6 mb 0.00 in0.0 mm 0.00 in/hr0.0 mm/hr 0.00 in0.0 mm
10:50 AM 48.7°F9.3°C 42.2°F5.7°C 78% 3.4 mph WSW5.5 kmh WSW 5.0 mph8.0 kmh 30.70 in1039.6 mb 0.00 in0.0 mm 0.00 in/hr0.0 mm/hr 0.00 in0.0 mm
10:40 AM 48.1°F8.9°C 41.9°F5.5°C 79% 6.2 mph W10.0 kmh W 10.0 mph16.1 kmh 30.70 in1039.6 mb 0.00 in0.0 mm 0.00 in/hr0.0 mm/hr 0.00 in0.0 mm
10:30 AM 48.5°F9.2°C 41.9°F5.5°C 78% 3.3 mph WSW5.3 kmh WSW 7.0 mph11.3 kmh 30.71 in1040.0 mb 0.00 in0.0 mm 0.00 in/hr0.0 mm/hr 0.00 in0.0 mm
10:20 AM 47.1°F8.4°C 41.5°F5.3°C 81% 5.0 mph WSW8.0 kmh WSW 11.0 mph17.7 kmh 30.71 in1040.0 mb 0.00 in0.0 mm 0.00 in/hr0.0 mm/hr 0.00 in0.0 mm
10:10 AM 45.9°F7.7°C 40.7°F4.8°C 82% 3.2 mph W5.1 kmh W 4.0 mph6.4 kmh 30.71 in1040.0 mb 0.00 in0.0 mm 0.00 in/hr0.0 mm/hr 0.00 in0.0 mm
10:00 AM 45.3°F7.4°C 40.4°F4.7°C 83% 1.6 mph W2.6 kmh W 4.0 mph6.4 kmh 30.71 in1040.0 mb 0.00 in0.0 mm 0.00 in/hr0.0 mm/hr 0.00 in0.0 mm
09:50 AM 44.7°F7.1°C 39.9°F4.4°C 83% 1.5 mph WSW2.4 kmh WSW 3.0 mph4.8 kmh 30.72 in1040.3 mb 0.00 in0.0 mm 0.00 in/hr0.0 mm/hr 0.00 in0.0 mm
09:40 AM 44.5°F6.9°C 39.7°F4.3°C 83% 0.1 mph WSW0.2 kmh WSW -- 30.72 in1040.3 mb 0.00 in0.0 mm 0.00 in/hr0.0 mm/hr 0.00 in0.0 mm
09:30 AM 43.6°F6.4°C 39.4°F4.1°C 85% Calm Calm -- 30.72 in1040.3 mb 0.00 in0.0 mm 0.00 in/hr0.0 mm/hr 0.00 in0.0 mm
09:20 AM 43.4°F6.3°C 39.2°F4.0°C 85% 0.1 mph WSW0.2 kmh WSW 2.0 mph3.2 kmh 30.72 in1040.3 mb 0.00 in0.0 mm 0.00 in/hr0.0 mm/hr 0.00 in0.0 mm
09:10 AM 43.1°F6.2°C 39.2°F4.0°C 86% 0.3 mph WSW0.5 kmh WSW 2.0 mph3.2 kmh 30.72 in1040.3 mb 0.00 in0.0 mm 0.00 in/hr0.0 mm/hr 0.00 in0.0 mm
09:00 AM 42.2°F5.7°C 38.7°F3.7°C 87% 0.3 mph WSW0.5 kmh WSW 1.0 mph1.6 kmh 30.72 in1040.3 mb 0.00 in0.0 mm 0.00 in/hr0.0 mm/hr 0.00 in0.0 mm
08:50 AM 41.6°F5.3°C 37.7°F3.2°C 86% 0.1 mph WSW0.2 kmh WSW -- 30.72 in1040.3 mb 0.00 in0.0 mm 0.00 in/hr0.0 mm/hr 0.00 in0.0 mm
08:40 AM 40.9°F4.9°C 37.6°F3.1°C 88% 0.3 mph WSW0.5 kmh WSW -- 30.72 in1040.3 mb 0.00 in0.0 mm 0.00 in/hr0.0 mm/hr 0.00 in0.0 mm
08:30 AM 40.2°F4.6°C 36.9°F2.7°C 88% 0.6 mph WSW1.0 kmh WSW 3.0 mph4.8 kmh 30.72 in1040.3 mb 0.00 in0.0 mm 0.00 in/hr0.0 mm/hr 0.00 in0.0 mm
08:20 AM 39.6°F4.2°C 36.9°F2.7°C 90% 0.8 mph WSW1.3 kmh WSW 2.0 mph3.2 kmh 30.71 in1040.0 mb 0.00 in0.0 mm 0.00 in/hr0.0 mm/hr 0.00 in0.0 mm
08:10 AM 38.9°F3.8°C 36.5°F2.5°C 91% Calm Calm 1.0 mph1.6 kmh 30.71 in1040.0 mb 0.00 in0.0 mm 0.00 in/hr0.0 mm/hr 0.00 in0.0 mm
08:00 AM 38.7°F3.7°C 36.3°F2.4°C 91% 0.5 mph WSW0.8 kmh WSW 2.0 mph3.2 kmh 30.71 in1040.0 mb 0.00 in0.0 mm 0.00 in/hr0.0 mm/hr 0.00 in0.0 mm
07:50 AM 38.4°F3.6°C 36.3°F2.4°C 92% Calm Calm 1.0 mph1.6 kmh 30.71 in1040.0 mb 0.00 in0.0 mm 0.00 in/hr0.0 mm/hr 0.00 in0.0 mm
07:40 AM 37.5°F3.1°C 35.4°F1.9°C 92% 0.6 mph W1.0 kmh W 3.0 mph4.8 kmh 30.71 in1040.0 mb 0.00 in0.0 mm 0.00 in/hr0.0 mm/hr 0.00 in0.0 mm
07:30 AM 37.0°F2.8°C 34.9°F1.6°C 92% Calm Calm -- 30.71 in1040.0 mb 0.00 in0.0 mm 0.00 in/hr0.0 mm/hr 0.00 in0.0 mm
07:20 AM 36.5°F2.5°C 34.4°F1.3°C 92% Calm Calm -- 30.71 in1040.0 mb 0.00 in0.0 mm 0.00 in/hr0.0 mm/hr 0.00 in0.0 mm
07:10 AM 36.5°F2.5°C 34.4°F1.3°C 92% Calm Calm -- 30.70 in1039.6 mb 0.00 in0.0 mm 0.00 in/hr0.0 mm/hr 0.00 in0.0 mm
07:00 AM 36.5°F2.5°C 34.1°F1.2°C 91% Calm Calm -- 30.71 in1040.0 mb 0.00 in0.0 mm 0.00 in/hr0.0 mm/hr 0.00 in0.0 mm
06:50 AM 36.7°F2.6°C 34.3°F1.3°C 91% Calm Calm -- 30.71 in1040.0 mb 0.00 in0.0 mm 0.00 in/hr0.0 mm/hr 0.00 in0.0 mm
06:40 AM 37.3°F2.9°C 34.9°F1.6°C 91% Calm Calm -- 30.71 in1040.0 mb 0.00 in0.0 mm 0.00 in/hr0.0 mm/hr 0.00 in0.0 mm
06:30 AM 37.4°F3.0°C 35.0°F1.7°C 91% Calm Calm -- 30.70 in1039.6 mb 0.00 in0.0 mm 0.00 in/hr0.0 mm/hr 0.00 in0.0 mm
06:20 AM 37.7°F3.2°C 35.6°F2.0°C 92% 0.4 mph W0.6 kmh W 1.0 mph1.6 kmh 30.71 in1040.0 mb 0.00 in0.0 mm 0.00 in/hr0.0 mm/hr 0.00 in0.0 mm
06:10 AM 36.9°F2.7°C 35.1°F1.7°C 93% 0.9 mph W1.4 kmh W 2.0 mph3.2 kmh 30.71 in1040.0 mb 0.00 in0.0 mm 0.00 in/hr0.0 mm/hr 0.00 in0.0 mm
06:00 AM 36.0°F2.2°C 33.9°F1.1°C 92% 0.1 mph W0.2 kmh W 1.0 mph1.6 kmh 30.70 in1039.6 mb 0.00 in0.0 mm 0.00 in/hr0.0 mm/hr 0.00 in0.0 mm
05:50 AM 36.1°F2.3°C 33.7°F0.9°C 91% Calm Calm 1.0 mph1.6 kmh 30.70 in1039.6 mb 0.00 in0.0 mm 0.00 in/hr0.0 mm/hr 0.00 in0.0 mm
05:40 AM 36.4°F2.4°C 34.0°F1.1°C 91% 0.2 mph W0.3 kmh W 2.0 mph3.2 kmh 30.70 in1039.6 mb 0.00 in0.0 mm 0.00 in/hr0.0 mm/hr 0.00 in0.0 mm
05:30 AM 36.0°F2.2°C 33.6°F0.9°C 91% 0.8 mph W1.3 kmh W 3.0 mph4.8 kmh 30.71 in1040.0 mb 0.00 in0.0 mm 0.00 in/hr0.0 mm/hr 0.00 in0.0 mm
05:20 AM 35.7°F2.1°C 33.1°F0.6°C 90% Calm Calm -- 30.71 in1040.0 mb 0.00 in0.0 mm 0.00 in/hr0.0 mm/hr 0.00 in0.0 mm
05:10 AM 36.1°F2.3°C 33.5°F0.8°C 90% 0.2 mph W0.3 kmh W 1.0 mph1.6 kmh 30.70 in1039.6 mb 0.00 in0.0 mm 0.00 in/hr0.0 mm/hr 0.00 in0.0 mm
05:00 AM 36.2°F2.3°C 33.5°F0.8°C 90% Calm Calm 1.0 mph1.6 kmh 30.70 in1039.6 mb 0.00 in0.0 mm 0.00 in/hr0.0 mm/hr 0.00 in0.0 mm
04:50 AM 36.0°F2.2°C 33.1°F0.6°C 89% 0.1 mph W0.2 kmh W 1.0 mph1.6 kmh 30.70 in1039.6 mb 0.00 in0.0 mm 0.00 in/hr0.0 mm/hr 0.00 in0.0 mm
04:40 AM 36.0°F2.2°C 33.1°F0.6°C 89% Calm Calm -- 30.70 in1039.6 mb 0.00 in0.0 mm 0.00 in/hr0.0 mm/hr 0.00 in0.0 mm
04:30 AM 35.8°F2.1°C 32.6°F0.3°C 88% 0.2 mph W0.3 kmh W 2.0 mph3.2 kmh 30.71 in1040.0 mb 0.00 in0.0 mm 0.00 in/hr0.0 mm/hr 0.00 in0.0 mm
04:20 AM 35.9°F2.2°C 32.7°F0.4°C 88% Calm Calm -- 30.70 in1039.6 mb 0.00 in0.0 mm 0.00 in/hr0.0 mm/hr 0.00 in0.0 mm
04:10 AM 35.7°F2.1°C 32.2°F0.1°C 87% Calm Calm -- 30.70 in1039.6 mb 0.00 in0.0 mm 0.00 in/hr0.0 mm/hr 0.00 in0.0 mm
04:00 AM 35.9°F2.2°C 32.1°F0.1°C 86% Calm Calm -- 30.70 in1039.6 mb 0.00 in0.0 mm 0.00 in/hr0.0 mm/hr 0.00 in0.0 mm
03:50 AM 35.9°F2.2°C 32.1°F0.1°C 86% Calm Calm -- 30.70 in1039.6 mb 0.00 in0.0 mm 0.00 in/hr0.0 mm/hr 0.00 in0.0 mm
03:40 AM 36.3°F2.4°C 32.3°F0.2°C 85% Calm Calm -- 30.70 in1039.6 mb 0.00 in0.0 mm 0.00 in/hr0.0 mm/hr 0.00 in0.0 mm
03:30 AM 36.9°F2.7°C 32.8°F0.4°C 85% Calm Calm -- 30.70 in1039.6 mb 0.00 in0.0 mm 0.00 in/hr0.0 mm/hr 0.00 in0.0 mm
03:20 AM 38.0°F3.3°C 33.3°F0.7°C 83% 0.1 mph W0.2 kmh W 1.0 mph1.6 kmh 30.70 in1039.6 mb 0.00 in0.0 mm 0.00 in/hr0.0 mm/hr 0.00 in0.0 mm
03:10 AM 39.2°F4.0°C 35.0°F1.7°C 85% 1.7 mph W2.7 kmh W 3.0 mph4.8 kmh 30.70 in1039.6 mb 0.00 in0.0 mm 0.00 in/hr0.0 mm/hr 0.00 in0.0 mm
03:00 AM 38.8°F3.8°C 34.4°F1.3°C 84% 0.2 mph W0.3 kmh W -- 30.70 in1039.6 mb 0.00 in0.0 mm 0.00 in/hr0.0 mm/hr 0.00 in0.0 mm
02:50 AM 39.0°F3.9°C 34.2°F1.2°C 83% Calm Calm -- 30.70 in1039.6 mb 0.00 in0.0 mm 0.00 in/hr0.0 mm/hr 0.00 in0.0 mm
02:40 AM 39.0°F3.9°C 34.3°F1.3°C 83% Calm Calm 1.0 mph1.6 kmh 30.70 in1039.6 mb 0.00 in0.0 mm 0.00 in/hr0.0 mm/hr 0.00 in0.0 mm
02:30 AM 39.0°F3.9°C 34.0°F1.1°C 82% 0.5 mph W0.8 kmh W 3.0 mph4.8 kmh 30.70 in1039.6 mb 0.00 in0.0 mm 0.00 in/hr0.0 mm/hr 0.00 in0.0 mm
02:20 AM 38.9°F3.8°C 33.9°F1.1°C 82% Calm Calm 1.0 mph1.6 kmh 30.70 in1039.6 mb 0.00 in0.0 mm 0.00 in/hr0.0 mm/hr 0.00 in0.0 mm
02:10 AM 38.7°F3.7°C 33.7°F0.9°C 82% 0.4 mph W0.6 kmh W 3.0 mph4.8 kmh 30.70 in1039.6 mb 0.00 in0.0 mm 0.00 in/hr0.0 mm/hr 0.00 in0.0 mm
02:00 AM 38.7°F3.7°C 33.7°F0.9°C 82% Calm Calm -- 30.71 in1040.0 mb 0.00 in0.0 mm 0.00 in/hr0.0 mm/hr 0.00 in0.0 mm
01:50 AM 39.2°F4.0°C 33.9°F1.1°C 81% 0.6 mph W1.0 kmh W 2.0 mph3.2 kmh 30.71 in1040.0 mb 0.00 in0.0 mm 0.00 in/hr0.0 mm/hr 0.00 in0.0 mm
01:40 AM 38.9°F3.8°C 33.3°F0.7°C 80% 0.5 mph W0.8 kmh W -- 30.71 in1040.0 mb 0.00 in0.0 mm 0.00 in/hr0.0 mm/hr 0.00 in0.0 mm
01:30 AM 39.1°F3.9°C 33.1°F0.6°C 79% 0.7 mph W1.1 kmh W 3.0 mph4.8 kmh 30.71 in1040.0 mb 0.00 in0.0 mm 0.00 in/hr0.0 mm/hr 0.00 in0.0 mm
01:20 AM 38.4°F3.6°C 32.8°F0.4°C 80% 0.6 mph W1.0 kmh W 2.0 mph3.2 kmh 30.71 in1040.0 mb 0.00 in0.0 mm 0.00 in/hr0.0 mm/hr 0.00 in0.0 mm
01:10 AM 38.5°F3.6°C 32.6°F0.3°C 79% Calm Calm -- 30.71 in1040.0 mb 0.00 in0.0 mm 0.00 in/hr0.0 mm/hr 0.00 in0.0 mm
01:00 AM 38.6°F3.7°C 32.6°F0.3°C 79% 0.1 mph W0.2 kmh W 1.0 mph1.6 kmh 30.71 in1040.0 mb 0.00 in0.0 mm 0.00 in/hr0.0 mm/hr 0.00 in0.0 mm
12:50 AM 38.8°F3.8°C 32.8°F0.4°C 79% 2.4 mph W3.9 kmh W 3.0 mph4.8 kmh 30.70 in1039.6 mb 0.00 in0.0 mm 0.00 in/hr0.0 mm/hr 0.00 in0.0 mm
12:40 AM 38.5°F3.6°C 32.6°F0.3°C 79% 0.1 mph W0.2 kmh W 1.0 mph1.6 kmh 30.71 in1040.0 mb 0.00 in0.0 mm 0.00 in/hr0.0 mm/hr 0.00 in0.0 mm
12:30 AM 38.3°F3.5°C 32.1°F0.1°C 78% Calm Calm 1.0 mph1.6 kmh 30.70 in1039.6 mb 0.00 in0.0 mm 0.00 in/hr0.0 mm/hr 0.00 in0.0 mm
12:20 AM 38.4°F3.6°C 32.4°F0.2°C 79% Calm Calm -- 30.70 in1039.6 mb 0.00 in0.0 mm 0.00 in/hr0.0 mm/hr 0.00 in0.0 mm
12:10 AM 38.7°F3.7°C 32.4°F0.2°C 78% 0.1 mph W0.2 kmh W -- 30.70 in1039.6 mb 0.00 in0.0 mm 0.00 in/hr0.0 mm/hr 0.00 in0.0 mm
12:00 AM 38.1°F3.4°C 32.5°F0.3°C 80% 1.5 mph W2.4 kmh W 2.0 mph3.2 kmh 30.71 in1040.0 mb 0.00 in0.0 mm 0.00 in/hr0.0 mm/hr 0.00 in0.0 mm